createdAt,value
2019-04-07T00:00:25.766Z,24.30
2019-04-07T00:01:26.330Z,23.10
2019-04-07T00:02:25.734Z,23.90
2019-04-07T00:03:25.729Z,23.80
2019-04-07T00:04:25.711Z,23.50
2019-04-07T00:05:25.717Z,23.70
2019-04-07T00:06:25.902Z,24.30
2019-04-07T00:07:26.285Z,23.00
2019-04-07T00:08:26.176Z,24.50
2019-04-07T00:09:25.855Z,23.20
2019-04-07T00:10:25.957Z,24.30
2019-04-07T00:11:25.645Z,23.60
2019-04-07T00:12:25.621Z,23.70
2019-04-07T00:13:25.915Z,23.90
2019-04-07T00:14:26.122Z,23.40
2019-04-07T00:15:25.924Z,24.60
2019-04-07T00:16:25.575Z,24.30
2019-04-07T00:17:26.227Z,23.90
2019-04-07T00:18:25.557Z,24.30
2019-04-07T00:19:25.551Z,24.60
2019-04-07T00:20:25.534Z,24.40
2019-04-07T00:21:25.523Z,24.20
2019-04-07T00:22:25.512Z,23.50
2019-04-07T00:23:25.526Z,23.00
2019-04-07T00:24:25.497Z,23.20
2019-04-07T00:25:25.480Z,23.90
2019-04-07T00:26:25.468Z,24.60
2019-04-07T00:27:25.725Z,23.90
2019-04-07T00:28:25.444Z,23.30
2019-04-07T00:29:25.450Z,23.70
2019-04-07T00:30:25.424Z,23.70
2019-04-07T00:31:25.411Z,23.60
2019-04-07T00:32:25.401Z,23.60
2019-04-07T00:33:25.641Z,24.00
2019-04-07T00:34:25.374Z,23.40
2019-04-07T00:35:30.453Z,23.40
2019-04-07T00:36:26.614Z,23.00
2019-04-07T00:37:25.342Z,24.10
2019-04-07T00:38:25.334Z,23.90
2019-04-07T00:39:25.922Z,23.20
2019-04-07T00:40:25.307Z,23.30
2019-04-07T00:41:25.318Z,24.50
2019-04-07T00:42:25.884Z,22.90
2019-04-07T00:43:25.272Z,23.60
2019-04-07T00:44:25.264Z,23.20
2019-04-07T00:45:25.252Z,23.70
2019-04-07T00:46:25.238Z,23.40
2019-04-07T00:47:25.262Z,23.20
2019-04-07T00:48:25.342Z,23.90
2019-04-07T00:49:25.766Z,23.30
2019-04-07T00:50:25.195Z,22.30
2019-04-07T00:51:25.601Z,24.30
2019-04-07T00:52:25.171Z,22.90
2019-04-07T00:53:25.446Z,23.50
2019-04-07T00:54:25.449Z,23.00
2019-04-07T00:55:25.428Z,23.40
2019-04-07T00:56:25.844Z,23.60
2019-04-07T00:57:25.357Z,23.40
2019-04-07T00:58:25.108Z,23.80
2019-04-07T00:59:25.465Z,22.70
2019-04-07T01:00:25.082Z,23.20
2019-04-07T01:01:25.072Z,23.80
2019-04-07T01:02:25.943Z,22.90
2019-04-07T01:03:25.046Z,22.40
2019-04-07T01:04:25.347Z,23.30
2019-04-07T01:05:35.427Z,23.20
2019-04-07T01:06:26.129Z,24.00
2019-04-07T01:07:25.595Z,24.10
2019-04-07T01:08:24.990Z,23.90
2019-04-07T01:09:24.978Z,23.80
2019-04-07T01:10:24.965Z,24.20
2019-04-07T01:11:24.974Z,23.70
2019-04-07T01:12:24.947Z,24.20
2019-04-07T01:13:24.938Z,23.80
2019-04-07T01:14:24.920Z,24.30
2019-04-07T01:15:25.192Z,24.20
2019-04-07T01:16:25.216Z,24.70
2019-04-07T01:17:24.915Z,24.20
2019-04-07T01:18:26.809Z,23.50
2019-04-07T01:19:25.297Z,25.10
2019-04-07T01:20:24.854Z,24.20
2019-04-07T01:21:24.993Z,24.70
2019-04-07T01:22:25.298Z,23.50
2019-04-07T01:23:24.841Z,24.00
2019-04-07T01:24:25.233Z,24.80
2019-04-07T01:25:24.801Z,24.30
2019-04-07T01:26:25.037Z,23.60
2019-04-07T01:27:24.773Z,24.30
2019-04-07T01:28:25.239Z,24.70
2019-04-07T01:29:24.766Z,24.70
2019-04-07T01:30:25.149Z,23.80
2019-04-07T01:31:25.088Z,24.90
2019-04-07T01:32:24.716Z,24.10
2019-04-07T01:33:24.722Z,24.60
2019-04-07T01:34:25.009Z,24.50
2019-04-07T01:35:24.710Z,24.30
2019-04-07T01:36:24.945Z,23.00
2019-04-07T01:37:25.242Z,24.00
2019-04-07T01:38:24.655Z,25.00
2019-04-07T01:39:24.640Z,24.90
2019-04-07T01:40:24.624Z,24.50
2019-04-07T01:41:25.256Z,23.90
2019-04-07T01:42:24.600Z,24.60
2019-04-07T01:43:25.104Z,23.80
2019-04-07T01:44:24.580Z,23.80
2019-04-07T01:45:24.591Z,23.50
2019-04-07T01:46:24.572Z,23.40
2019-04-07T01:47:24.568Z,23.80
2019-04-07T01:48:24.534Z,23.90
2019-04-07T01:49:24.846Z,24.30
2019-04-07T01:50:24.512Z,24.10
2019-04-07T01:51:24.640Z,24.30
2019-04-07T01:52:24.500Z,23.90
2019-04-07T01:53:24.568Z,24.30
2019-04-07T01:54:24.969Z,23.80
2019-04-07T01:55:24.598Z,24.30
2019-04-07T01:56:24.587Z,24.60
2019-04-07T01:57:24.675Z,24.20
2019-04-07T01:58:25.186Z,25.20
2019-04-07T01:59:24.451Z,24.60
2019-04-07T02:00:24.986Z,24.10
2019-04-07T02:01:24.389Z,24.10
2019-04-07T02:02:24.807Z,24.60
2019-04-07T02:03:24.365Z,23.90
2019-04-07T02:04:24.550Z,24.30
2019-04-07T02:05:24.354Z,24.20
2019-04-07T02:06:24.414Z,23.60
2019-04-07T02:07:24.635Z,23.90
2019-04-07T02:08:24.782Z,24.70
2019-04-07T02:09:24.820Z,24.80
2019-04-07T02:10:24.286Z,24.40
2019-04-07T02:11:24.294Z,25.00
2019-04-07T02:12:24.828Z,23.80
2019-04-07T02:13:24.249Z,24.30
2019-04-07T02:14:24.240Z,24.30
2019-04-07T02:15:24.235Z,25.70
2019-04-07T02:16:24.629Z,24.70
2019-04-07T02:17:24.233Z,25.30
2019-04-07T02:18:24.661Z,25.20
2019-04-07T02:19:24.195Z,24.90
2019-04-07T02:20:24.172Z,26.20
2019-04-07T02:21:24.902Z,26.00
2019-04-07T02:22:24.151Z,25.70
2019-04-07T02:23:24.158Z,26.60
2019-04-07T02:24:24.555Z,26.30
2019-04-07T02:25:24.115Z,27.00
2019-04-07T02:26:24.104Z,26.00
2019-04-07T02:27:24.096Z,27.40
2019-04-07T02:28:24.087Z,26.30
2019-04-07T02:29:24.679Z,27.00
2019-04-07T02:30:24.064Z,26.10
2019-04-07T02:31:24.951Z,26.80
2019-04-07T02:32:24.645Z,25.40
2019-04-07T02:33:24.342Z,27.30
2019-04-07T02:34:24.026Z,26.50
2019-04-07T02:35:24.653Z,26.30
2019-04-07T02:36:29.136Z,25.40
2019-04-07T02:37:24.978Z,27.50
2019-04-07T02:38:23.969Z,26.30
2019-04-07T02:39:24.848Z,27.10
2019-04-07T02:40:23.948Z,27.10
2019-04-07T02:41:24.132Z,27.20
2019-04-07T02:42:24.995Z,27.80
2019-04-07T02:43:24.204Z,28.30
2019-04-07T02:44:24.049Z,27.80
2019-04-07T02:45:24.105Z,28.70
2019-04-07T02:46:24.117Z,27.30
2019-04-07T02:47:24.477Z,28.80
2019-04-07T02:48:24.198Z,27.50
2019-04-07T02:49:24.158Z,28.70
2019-04-07T02:50:24.115Z,29.00
2019-04-07T02:51:24.323Z,29.00
2019-04-07T02:52:24.882Z,28.80
2019-04-07T02:53:24.555Z,28.40
2019-04-07T02:54:24.604Z,28.80
2019-04-07T02:55:23.898Z,29.50
2019-04-07T02:56:23.846Z,28.80
2019-04-07T02:57:24.267Z,27.80
2019-04-07T02:58:23.973Z,27.80
2019-04-07T02:59:23.750Z,27.80
2019-04-07T03:00:24.630Z,27.10
2019-04-07T03:01:24.088Z,27.00
2019-04-07T03:02:23.692Z,26.60
2019-04-07T03:03:23.685Z,27.80
2019-04-07T03:04:24.506Z,26.60
2019-04-07T03:05:24.145Z,27.80
2019-04-07T03:06:37.743Z,27.60
2019-04-07T03:07:25.060Z,27.70
2019-04-07T03:08:23.803Z,27.90
2019-04-07T03:09:23.615Z,28.20
2019-04-07T03:10:23.603Z,28.00
2019-04-07T03:11:24.695Z,28.20
2019-04-07T03:12:23.619Z,28.00
2019-04-07T03:13:24.418Z,27.60
2019-04-07T03:14:23.562Z,27.60
2019-04-07T03:15:23.550Z,27.40
2019-04-07T03:16:24.352Z,27.20
2019-04-07T03:17:23.554Z,27.60
2019-04-07T03:18:25.255Z,28.90
2019-04-07T03:19:23.637Z,28.60
2019-04-07T03:20:23.498Z,27.10
2019-04-07T03:21:23.485Z,28.60
2019-04-07T03:22:23.774Z,27.60
2019-04-07T03:23:24.537Z,26.50
2019-04-07T03:24:24.404Z,27.00
2019-04-07T03:25:24.001Z,27.40
2019-04-07T03:26:23.749Z,26.90
2019-04-07T03:27:24.023Z,27.90
2019-04-07T03:28:23.413Z,28.10
2019-04-07T03:29:23.625Z,27.60
2019-04-07T03:30:25.902Z,27.70
2019-04-07T03:31:24.034Z,28.00
2019-04-07T03:32:26.016Z,27.30
2019-04-07T03:33:25.581Z,26.60
2019-04-07T03:34:26.195Z,28.00
2019-04-07T03:35:25.927Z,28.10
2019-04-07T03:36:26.037Z,27.80
2019-04-07T03:37:35.110Z,27.80
2019-04-07T03:38:24.784Z,27.70
2019-04-07T03:39:23.283Z,28.70
2019-04-07T03:40:24.034Z,27.60
2019-04-07T03:41:23.795Z,27.80
2019-04-07T03:42:23.284Z,28.50
2019-04-07T03:43:23.929Z,27.40
2019-04-07T03:44:23.226Z,27.90
2019-04-07T03:45:23.338Z,26.80
2019-04-07T03:46:23.206Z,26.80
2019-04-07T03:47:23.472Z,27.20
2019-04-07T03:48:23.604Z,27.70
2019-04-07T03:49:23.497Z,26.50
2019-04-07T03:50:23.165Z,27.00
2019-04-07T03:51:23.154Z,28.30
2019-04-07T03:52:23.150Z,26.90
2019-04-07T03:53:24.282Z,28.00
2019-04-07T03:54:24.178Z,27.10
2019-04-07T03:55:23.107Z,27.30
2019-04-07T03:56:23.244Z,27.00
2019-04-07T03:57:24.111Z,27.10
2019-04-07T03:58:23.082Z,27.30
2019-04-07T03:59:23.083Z,27.50
2019-04-07T04:00:23.080Z,27.70
2019-04-07T04:01:23.998Z,27.00
2019-04-07T04:02:23.050Z,26.20
2019-04-07T04:03:23.022Z,28.10
2019-04-07T04:04:23.017Z,27.90
2019-04-07T04:05:24.195Z,26.90
2019-04-07T04:06:22.988Z,27.60
2019-04-07T04:07:29.887Z,28.40
2019-04-07T04:08:24.506Z,26.90
2019-04-07T04:09:22.958Z,27.30
2019-04-07T04:10:23.739Z,28.10
2019-04-07T04:11:23.604Z,26.90
2019-04-07T04:12:22.935Z,28.00
2019-04-07T04:13:23.160Z,27.70
2019-04-07T04:14:23.808Z,26.90
2019-04-07T04:15:22.893Z,27.50
2019-04-07T04:16:23.358Z,28.20
2019-04-07T04:17:23.074Z,28.10
2019-04-07T04:18:22.857Z,27.20
2019-04-07T04:19:22.846Z,27.40
2019-04-07T04:20:23.888Z,27.10
2019-04-07T04:21:22.828Z,29.00
2019-04-07T04:22:23.027Z,26.80
2019-04-07T04:23:22.821Z,27.70
2019-04-07T04:24:23.051Z,27.90
2019-04-07T04:25:23.174Z,27.30
2019-04-07T04:26:23.736Z,26.70
2019-04-07T04:27:23.674Z,27.90
2019-04-07T04:28:23.462Z,27.20
2019-04-07T04:29:23.365Z,27.70
2019-04-07T04:30:22.737Z,27.90
2019-04-07T04:31:22.740Z,26.60
2019-04-07T04:32:23.143Z,27.10
2019-04-07T04:33:23.505Z,27.10
2019-04-07T04:34:22.688Z,28.00
2019-04-07T04:35:22.695Z,27.00
2019-04-07T04:36:22.662Z,26.60
2019-04-07T04:37:36.058Z,27.80
2019-04-07T04:38:24.238Z,27.50
2019-04-07T04:39:22.910Z,27.90
2019-04-07T04:40:22.621Z,27.60
2019-04-07T04:41:23.125Z,28.00
2019-04-07T04:42:22.809Z,27.40
2019-04-07T04:43:23.297Z,29.30
2019-04-07T04:44:22.639Z,27.70
2019-04-07T04:45:22.574Z,28.70
2019-04-07T04:46:22.562Z,29.10
2019-04-07T04:47:23.211Z,29.20
2019-04-07T04:48:22.537Z,28.60
2019-04-07T04:49:23.263Z,29.10
2019-04-07T04:50:23.523Z,28.90
2019-04-07T04:51:22.507Z,28.70
2019-04-07T04:52:22.505Z,29.30
2019-04-07T04:53:22.677Z,29.90
2019-04-07T04:54:22.617Z,29.70
2019-04-07T04:55:22.461Z,28.20
2019-04-07T04:56:22.939Z,28.70
2019-04-07T04:57:23.127Z,28.70
2019-04-07T04:58:22.879Z,28.50
2019-04-07T04:59:22.642Z,31.10
2019-04-07T05:00:22.408Z,30.80
2019-04-07T05:01:23.005Z,31.40
2019-04-07T05:02:22.455Z,31.40
2019-04-07T05:03:22.372Z,29.90
2019-04-07T05:04:22.956Z,30.00
2019-04-07T05:05:23.183Z,30.90
2019-04-07T05:06:22.452Z,30.40
2019-04-07T05:07:22.999Z,32.10
2019-04-07T05:08:22.319Z,31.60
2019-04-07T05:09:23.156Z,32.60
2019-04-07T05:10:22.306Z,31.30
2019-04-07T05:11:22.305Z,33.10
2019-04-07T05:12:22.272Z,33.00
2019-04-07T05:13:22.483Z,33.10
2019-04-07T05:14:22.896Z,32.00
2019-04-07T05:15:22.829Z,32.90
2019-04-07T05:16:22.936Z,32.00
2019-04-07T05:17:22.244Z,32.40
2019-04-07T05:18:22.300Z,31.80
2019-04-07T05:19:22.486Z,31.30
2019-04-07T05:20:22.897Z,31.50
2019-04-07T05:21:22.337Z,32.10
2019-04-07T05:22:22.554Z,32.00
2019-04-07T05:23:22.170Z,32.70
2019-04-07T05:24:22.264Z,33.00
2019-04-07T05:25:22.279Z,33.30
2019-04-07T05:26:22.348Z,33.40
2019-04-07T05:27:22.118Z,33.00
2019-04-07T05:28:22.097Z,32.20
2019-04-07T05:29:22.102Z,33.90
2019-04-07T05:30:22.545Z,32.90
2019-04-07T05:31:22.473Z,32.90
2019-04-07T05:32:22.327Z,34.20
2019-04-07T05:33:22.044Z,31.70
2019-04-07T05:34:23.004Z,31.30
2019-04-07T05:35:22.548Z,32.30
2019-04-07T05:36:22.367Z,31.60
2019-04-07T05:37:22.087Z,32.90
2019-04-07T05:38:22.357Z,32.70
2019-04-07T05:39:21.985Z,31.60
2019-04-07T05:40:21.959Z,33.10
2019-04-07T05:41:21.976Z,30.50
2019-04-07T05:42:22.537Z,31.30
2019-04-07T05:43:22.678Z,32.20
2019-04-07T05:44:21.923Z,30.50
2019-04-07T05:45:22.645Z,31.90
2019-04-07T05:46:21.894Z,30.80
2019-04-07T05:47:21.897Z,27.70
2019-04-07T05:48:21.910Z,29.10
2019-04-07T05:49:24.074Z,29.70
2019-04-07T05:50:22.289Z,28.90
2019-04-07T05:51:22.065Z,28.40
2019-04-07T05:52:21.837Z,26.70
2019-04-07T05:53:21.831Z,28.50
2019-04-07T05:54:22.490Z,29.80
2019-04-07T05:55:24.093Z,27.60
2019-04-07T05:56:25.900Z,27.60
2019-04-07T05:57:22.791Z,29.20
2019-04-07T05:58:22.186Z,29.80
2019-04-07T05:59:22.154Z,29.00
2019-04-07T06:00:21.888Z,27.60
2019-04-07T06:01:23.334Z,27.30
2019-04-07T06:02:22.290Z,27.70
2019-04-07T06:03:21.948Z,27.00
2019-04-07T06:04:21.795Z,27.10
2019-04-07T06:05:22.136Z,28.30
2019-04-07T06:06:22.434Z,26.20
2019-04-07T06:07:25.801Z,26.40
2019-04-07T06:08:30.317Z,26.70
2019-04-07T06:09:23.091Z,27.20
2019-04-07T06:10:23.876Z,27.90
2019-04-07T06:11:21.719Z,28.10
2019-04-07T06:12:21.636Z,26.90
2019-04-07T06:13:21.580Z,28.30
2019-04-07T06:14:21.576Z,28.20
2019-04-07T06:15:22.317Z,28.10
2019-04-07T06:16:22.477Z,27.60
2019-04-07T06:17:24.196Z,27.20
2019-04-07T06:18:21.520Z,27.00
2019-04-07T06:19:21.569Z,27.90
2019-04-07T06:20:21.497Z,26.60
2019-04-07T06:21:22.164Z,27.10
2019-04-07T06:22:22.039Z,25.40
2019-04-07T06:23:24.264Z,26.90
2019-04-07T06:24:22.470Z,25.70
2019-04-07T06:25:21.437Z,26.20
2019-04-07T06:26:22.246Z,25.70
2019-04-07T06:27:21.751Z,24.90
2019-04-07T06:28:21.412Z,25.30
2019-04-07T06:29:24.681Z,25.80
2019-04-07T06:30:22.072Z,24.80
2019-04-07T06:31:24.303Z,24.80
2019-04-07T06:32:21.895Z,23.60
2019-04-07T06:33:22.090Z,23.60
2019-04-07T06:34:21.601Z,24.30
2019-04-07T06:35:21.346Z,24.00
2019-04-07T06:36:21.317Z,24.20
2019-04-07T06:37:25.799Z,23.80
2019-04-07T06:38:31.117Z,24.30
2019-04-07T06:39:23.054Z,23.70
2019-04-07T06:40:22.188Z,24.00
2019-04-07T06:41:21.776Z,24.40
2019-04-07T06:42:22.001Z,24.10
2019-04-07T06:43:21.238Z,23.10
2019-04-07T06:44:23.000Z,23.90
2019-04-07T06:45:22.736Z,23.50
2019-04-07T06:46:22.646Z,23.40
2019-04-07T06:47:21.465Z,23.00
2019-04-07T06:48:21.188Z,23.00
2019-04-07T06:49:21.865Z,22.40
2019-04-07T06:50:21.162Z,24.00
2019-04-07T06:51:21.481Z,23.40
2019-04-07T06:52:21.132Z,22.50
2019-04-07T06:53:21.169Z,23.00
2019-04-07T06:54:22.227Z,24.20
2019-04-07T06:55:22.639Z,23.30
2019-04-07T06:56:21.091Z,22.20
2019-04-07T06:57:21.077Z,22.40
2019-04-07T06:58:21.069Z,22.70
2019-04-07T06:59:21.074Z,22.30
2019-04-07T07:00:24.442Z,21.50
2019-04-07T07:01:25.191Z,22.30
2019-04-07T07:02:22.460Z,22.70
2019-04-07T07:03:21.513Z,22.90
2019-04-07T07:04:21.169Z,22.00
2019-04-07T07:05:21.337Z,22.70
2019-04-07T07:06:20.982Z,22.40
2019-04-07T07:07:21.546Z,22.70
2019-04-07T07:08:21.965Z,21.90
2019-04-07T07:09:21.316Z,21.90
2019-04-07T07:10:28.978Z,22.10
2019-04-07T07:11:28.619Z,21.90
2019-04-07T07:12:30.305Z,21.60
2019-04-07T07:13:29.911Z,21.80
2019-04-07T07:14:33.495Z,22.10
2019-04-07T07:15:21.892Z,22.20
2019-04-07T07:16:21.728Z,21.90
2019-04-07T07:17:21.523Z,21.90
2019-04-07T07:18:22.932Z,21.60
2019-04-07T07:19:24.467Z,21.90
2019-04-07T07:20:21.848Z,21.40
2019-04-07T07:21:24.068Z,20.60
2019-04-07T07:22:20.805Z,21.00
2019-04-07T07:23:20.802Z,21.10
2019-04-07T07:24:25.005Z,20.90
2019-04-07T07:25:21.355Z,21.00
2019-04-07T07:26:21.776Z,20.80
2019-04-07T07:27:20.819Z,19.80
2019-04-07T07:28:21.221Z,20.20
2019-04-07T07:29:21.368Z,20.60
2019-04-07T07:30:21.401Z,20.30
2019-04-07T07:31:25.255Z,19.60
2019-04-07T07:32:21.360Z,20.20
2019-04-07T07:33:21.343Z,20.20
2019-04-07T07:34:21.141Z,20.50
2019-04-07T07:35:20.670Z,19.70
2019-04-07T07:36:22.630Z,19.00
2019-04-07T07:37:20.636Z,19.70
2019-04-07T07:38:21.329Z,20.10
2019-04-07T07:39:22.876Z,18.80
2019-04-07T07:40:21.141Z,18.80
2019-04-07T07:41:22.391Z,18.70
2019-04-07T07:42:23.120Z,18.20
2019-04-07T07:43:21.069Z,19.30
2019-04-07T07:44:20.556Z,18.50
2019-04-07T07:45:20.545Z,18.00
2019-04-07T07:46:22.577Z,18.50
2019-04-07T07:47:22.439Z,17.60
2019-04-07T07:48:23.652Z,18.40
2019-04-07T07:49:21.543Z,17.90
2019-04-07T07:50:20.548Z,18.50
2019-04-07T07:51:20.475Z,18.30
2019-04-07T07:52:21.803Z,18.00
2019-04-07T07:53:23.693Z,17.60
2019-04-07T07:54:21.746Z,17.50
2019-04-07T07:55:20.827Z,17.60
2019-04-07T07:56:21.316Z,17.40
2019-04-07T07:57:23.495Z,18.30
2019-04-07T07:58:20.427Z,17.20
2019-04-07T07:59:20.406Z,17.40
2019-04-07T08:00:20.995Z,16.90
2019-04-07T08:01:21.068Z,17.70
2019-04-07T08:02:20.838Z,17.00
2019-04-07T08:03:22.670Z,17.00
2019-04-07T08:04:20.710Z,17.10
2019-04-07T08:05:20.352Z,16.80
2019-04-07T08:06:20.584Z,17.00
2019-04-07T08:07:20.387Z,16.90
2019-04-07T08:08:21.727Z,17.30
2019-04-07T08:09:23.674Z,17.00
2019-04-07T08:10:20.287Z,17.30
2019-04-07T08:11:20.497Z,17.30
2019-04-07T08:12:20.609Z,17.40
2019-04-07T08:13:20.236Z,16.60
2019-04-07T08:14:20.223Z,16.80
2019-04-07T08:15:22.879Z,16.90
2019-04-07T08:16:20.556Z,16.90
2019-04-07T08:17:20.210Z,16.30
2019-04-07T08:18:21.016Z,15.90
2019-04-07T08:19:20.174Z,16.20
2019-04-07T08:20:20.162Z,16.30
2019-04-07T08:21:20.571Z,16.80
2019-04-07T08:22:27.651Z,16.60
2019-04-07T08:23:21.982Z,15.20
2019-04-07T08:24:20.771Z,15.30
2019-04-07T08:25:22.442Z,15.00
2019-04-07T08:26:23.900Z,15.30
2019-04-07T08:27:20.551Z,15.00
2019-04-07T08:28:20.903Z,15.10
2019-04-07T08:29:20.344Z,14.70
2019-04-07T08:30:20.050Z,14.90
2019-04-07T08:31:21.422Z,14.40
2019-04-07T08:32:22.660Z,14.80
2019-04-07T08:33:21.016Z,14.30
2019-04-07T08:34:20.013Z,14.80
2019-04-07T08:35:20.026Z,14.30
2019-04-07T08:36:19.984Z,14.60
2019-04-07T08:37:20.035Z,15.00
2019-04-07T08:38:23.523Z,15.10
2019-04-07T08:39:25.584Z,15.30
2019-04-07T08:40:21.005Z,15.30
2019-04-07T08:41:19.934Z,15.50
2019-04-07T08:42:20.801Z,14.90
2019-04-07T08:43:22.552Z,14.20
2019-04-07T08:44:20.471Z,14.50
2019-04-07T08:45:19.890Z,14.00
2019-04-07T08:46:20.070Z,13.60
2019-04-07T08:47:22.109Z,14.30
2019-04-07T08:48:20.859Z,13.50
2019-04-07T08:49:23.618Z,14.40
2019-04-07T08:50:21.538Z,13.60
2019-04-07T08:51:20.045Z,13.60
2019-04-07T08:52:19.835Z,13.00
2019-04-07T08:53:19.802Z,13.40
2019-04-07T08:54:19.968Z,13.70
2019-04-07T08:55:20.429Z,13.40
2019-04-07T08:56:19.769Z,13.40
2019-04-07T08:57:19.760Z,13.10
2019-04-07T08:58:27.147Z,13.40
2019-04-07T08:59:20.743Z,13.20
2019-04-07T09:00:20.282Z,13.10
2019-04-07T09:01:21.072Z,12.80
2019-04-07T09:02:20.059Z,12.60
2019-04-07T09:03:19.720Z,13.00
2019-04-07T09:04:19.720Z,12.30
2019-04-07T09:05:23.077Z,13.30
2019-04-07T09:06:20.919Z,13.30
2019-04-07T09:07:22.558Z,12.60
2019-04-07T09:08:20.392Z,12.70
2019-04-07T09:09:31.186Z,13.00
2019-04-07T09:10:21.584Z,12.80
2019-04-07T09:11:21.647Z,13.00
2019-04-07T09:12:19.600Z,12.60
2019-04-07T09:13:19.757Z,12.30
2019-04-07T09:14:20.249Z,12.70
2019-04-07T09:15:19.567Z,12.50
2019-04-07T09:16:19.993Z,12.40
2019-04-07T09:17:30.712Z,12.80
2019-04-07T09:18:20.538Z,11.90
2019-04-07T09:19:20.303Z,12.00
2019-04-07T09:20:20.040Z,12.30
2019-04-07T09:21:20.703Z,11.30
2019-04-07T09:22:22.170Z,11.80
2019-04-07T09:23:20.131Z,11.60
2019-04-07T09:24:19.590Z,11.70
2019-04-07T09:25:20.334Z,11.10
2019-04-07T09:26:21.154Z,11.40
2019-04-07T09:27:23.363Z,11.10
2019-04-07T09:28:22.151Z,10.90
2019-04-07T09:29:19.421Z,10.70
2019-04-07T09:30:19.667Z,10.80
2019-04-07T09:31:19.632Z,10.50
2019-04-07T09:32:19.391Z,10.60
2019-04-07T09:33:19.382Z,10.10
2019-04-07T09:34:21.178Z,9.90
2019-04-07T09:35:22.765Z,9.60
2019-04-07T09:36:19.460Z,9.10
2019-04-07T09:37:22.023Z,9.60
2019-04-07T09:38:19.325Z,9.70
2019-04-07T09:39:19.318Z,9.50
2019-04-07T09:40:20.091Z,9.50
2019-04-07T09:41:23.152Z,8.90
2019-04-07T09:42:24.382Z,8.70
2019-04-07T09:43:20.269Z,8.20
2019-04-07T09:44:19.791Z,8.10
2019-04-07T09:45:19.585Z,7.90
2019-04-07T09:46:20.151Z,7.90
2019-04-07T09:47:19.633Z,7.90
2019-04-07T09:48:21.796Z,7.90
2019-04-07T09:49:21.251Z,7.60
2019-04-07T09:50:19.770Z,7.10
2019-04-07T09:51:19.739Z,5.80
2019-04-07T09:52:19.189Z,6.30
2019-04-07T09:53:19.725Z,6.20
2019-04-07T09:54:22.177Z,5.90
2019-04-07T09:55:19.144Z,5.80
2019-04-07T09:56:19.160Z,5.90
2019-04-07T09:57:19.131Z,5.20
2019-04-07T09:58:19.305Z,5.40
2019-04-07T09:59:19.540Z,5.30
2019-04-07T10:00:21.634Z,5.40
2019-04-07T10:01:20.767Z,5.40
2019-04-07T10:02:19.628Z,5.60
2019-04-07T10:03:19.302Z,5.40
2019-04-07T10:04:19.068Z,5.50
2019-04-07T10:05:19.039Z,5.70
2019-04-07T10:06:19.028Z,5.30
2019-04-07T10:07:19.326Z,5.40
2019-04-07T10:08:19.573Z,5.50
2019-04-07T10:09:19.691Z,5.30
2019-04-07T10:10:19.175Z,4.80
2019-04-07T10:11:19.658Z,5.00
2019-04-07T10:12:19.667Z,5.20
2019-04-07T10:13:18.955Z,4.80
2019-04-07T10:14:19.613Z,5.10
2019-04-07T10:15:18.949Z,5.00
2019-04-07T10:16:18.943Z,5.40
2019-04-07T10:17:18.913Z,5.00
2019-04-07T10:18:19.222Z,5.20
2019-04-07T10:19:18.893Z,5.00
2019-04-07T10:20:22.026Z,5.00
2019-04-07T10:21:19.608Z,5.10
2019-04-07T10:22:19.741Z,4.90
2019-04-07T10:23:19.619Z,4.90
2019-04-07T10:24:19.695Z,5.00
2019-04-07T10:25:18.824Z,4.90
2019-04-07T10:26:18.894Z,4.60
2019-04-07T10:27:18.824Z,4.70
2019-04-07T10:28:18.861Z,4.30
2019-04-07T10:29:18.794Z,4.70
2019-04-07T10:30:18.910Z,5.00
2019-04-07T10:31:20.753Z,4.70
2019-04-07T10:32:18.920Z,4.80
2019-04-07T10:33:19.055Z,4.40
2019-04-07T10:34:18.750Z,5.00
2019-04-07T10:35:19.008Z,4.70
2019-04-07T10:36:19.404Z,4.80
2019-04-07T10:37:18.858Z,4.90
2019-04-07T10:38:18.964Z,4.80
2019-04-07T10:39:18.716Z,4.90
2019-04-07T10:40:21.227Z,4.40
2019-04-07T10:41:18.697Z,4.90
2019-04-07T10:42:18.993Z,4.60
2019-04-07T10:43:18.643Z,4.80
2019-04-07T10:44:19.433Z,4.30
2019-04-07T10:45:18.625Z,4.40
2019-04-07T10:46:18.631Z,4.30
2019-04-07T10:47:19.301Z,4.60
2019-04-07T10:48:19.097Z,4.30
2019-04-07T10:49:19.146Z,4.30
2019-04-07T10:50:18.568Z,4.50
2019-04-07T10:51:18.560Z,4.40
2019-04-07T10:52:19.660Z,4.30
2019-04-07T10:53:19.465Z,4.40
2019-04-07T10:54:18.524Z,4.30
2019-04-07T10:55:18.520Z,4.10
2019-04-07T10:56:18.806Z,4.10
2019-04-07T10:57:18.862Z,4.10
2019-04-07T10:58:18.496Z,4.00
2019-04-07T10:59:18.473Z,3.80
2019-04-07T11:00:19.263Z,4.30
2019-04-07T11:01:19.395Z,3.80
2019-04-07T11:02:19.164Z,3.80
2019-04-07T11:03:18.631Z,3.60
2019-04-07T11:04:19.112Z,3.60
2019-04-07T11:05:18.638Z,3.80
2019-04-07T11:06:19.103Z,3.80
2019-04-07T11:07:18.989Z,3.90
2019-04-07T11:08:18.378Z,3.90
2019-04-07T11:09:18.370Z,3.90
2019-04-07T11:10:29.733Z,3.80
2019-04-07T11:11:20.189Z,3.80
2019-04-07T11:12:18.335Z,3.70
2019-04-07T11:13:18.577Z,3.90
2019-04-07T11:14:18.505Z,3.80
2019-04-07T11:15:18.462Z,4.00
2019-04-07T11:16:18.573Z,3.40
2019-04-07T11:17:18.285Z,3.60
2019-04-07T11:18:19.018Z,3.90
2019-04-07T11:19:18.264Z,3.90
2019-04-07T11:20:18.258Z,3.60
2019-04-07T11:21:18.246Z,3.90
2019-04-07T11:22:18.786Z,3.50
2019-04-07T11:23:18.222Z,3.60
2019-04-07T11:24:18.750Z,3.60
2019-04-07T11:25:18.385Z,3.40
2019-04-07T11:26:18.189Z,3.70
2019-04-07T11:27:19.044Z,3.40
2019-04-07T11:28:18.188Z,3.60
2019-04-07T11:29:18.159Z,3.60
2019-04-07T11:30:18.183Z,3.60
2019-04-07T11:31:18.776Z,3.30
2019-04-07T11:32:18.130Z,3.70
2019-04-07T11:33:18.304Z,3.50
2019-04-07T11:34:18.124Z,3.40
2019-04-07T11:35:18.200Z,3.60
2019-04-07T11:36:21.275Z,3.60
2019-04-07T11:37:18.907Z,3.50
2019-04-07T11:38:19.693Z,3.80
2019-04-07T11:39:18.826Z,3.80
2019-04-07T11:40:18.247Z,3.90
2019-04-07T11:41:21.666Z,3.70
2019-04-07T11:42:19.726Z,3.30
2019-04-07T11:43:18.002Z,3.60
2019-04-07T11:44:20.155Z,3.50
2019-04-07T11:45:17.986Z,3.60
2019-04-07T11:46:18.764Z,3.50
2019-04-07T11:47:18.583Z,3.20
2019-04-07T11:48:18.040Z,3.20
2019-04-07T11:49:18.237Z,3.50
2019-04-07T11:50:18.825Z,3.60
2019-04-07T11:51:18.494Z,3.60
2019-04-07T11:52:18.009Z,3.80
2019-04-07T11:53:17.891Z,3.60
2019-04-07T11:54:18.234Z,3.30
2019-04-07T11:55:18.416Z,3.60
2019-04-07T11:56:17.865Z,3.60
2019-04-07T11:57:17.846Z,3.70
2019-04-07T11:58:26.009Z,3.30
2019-04-07T11:59:20.325Z,3.40
2019-04-07T12:00:18.386Z,3.60
2019-04-07T12:01:18.608Z,3.30
2019-04-07T12:02:19.778Z,3.70
2019-04-07T12:03:18.220Z,3.70
2019-04-07T12:04:18.521Z,3.50
2019-04-07T12:05:17.761Z,3.70
2019-04-07T12:06:18.103Z,3.70
2019-04-07T12:07:20.335Z,3.30
2019-04-07T12:08:17.725Z,3.30
2019-04-07T12:09:17.716Z,3.40
2019-04-07T12:10:17.935Z,3.40
2019-04-07T12:11:17.994Z,3.70
2019-04-07T12:12:18.228Z,4.00
2019-04-07T12:13:17.671Z,3.60
2019-04-07T12:14:18.075Z,3.50
2019-04-07T12:15:22.072Z,3.50
2019-04-07T12:16:18.655Z,3.40
2019-04-07T12:17:17.779Z,3.80
2019-04-07T12:18:18.967Z,3.70
2019-04-07T12:19:18.488Z,3.60
2019-04-07T12:20:17.664Z,3.50
2019-04-07T12:21:22.646Z,3.60
2019-04-07T12:22:18.593Z,3.80
2019-04-07T12:23:22.890Z,3.60
2019-04-07T12:24:18.945Z,3.40
2019-04-07T12:25:17.543Z,3.60
2019-04-07T12:26:18.160Z,3.80
2019-04-07T12:27:20.351Z,3.60
2019-04-07T12:28:19.071Z,3.60
2019-04-07T12:29:17.878Z,3.60
2019-04-07T12:30:18.276Z,3.60
2019-04-07T12:31:17.496Z,3.70
2019-04-07T12:32:18.107Z,3.80
2019-04-07T12:33:17.897Z,3.50
2019-04-07T12:34:17.861Z,3.80
2019-04-07T12:35:19.229Z,3.60
2019-04-07T12:36:18.346Z,4.00
2019-04-07T12:37:17.591Z,3.70
2019-04-07T12:38:17.673Z,4.10
2019-04-07T12:39:18.912Z,3.80
2019-04-07T12:40:20.846Z,3.80
2019-04-07T12:41:21.601Z,4.00
2019-04-07T12:42:17.845Z,4.10
2019-04-07T12:43:17.442Z,4.40
2019-04-07T12:44:17.333Z,4.10
2019-04-07T12:45:18.020Z,4.20
2019-04-07T12:46:17.725Z,4.20
2019-04-07T12:47:18.110Z,4.60
2019-04-07T12:48:17.873Z,4.00
2019-04-07T12:49:17.296Z,4.10
2019-04-07T12:50:18.846Z,3.80
2019-04-07T12:51:17.576Z,4.40
2019-04-07T12:52:17.428Z,4.20
2019-04-07T12:53:17.236Z,4.50
2019-04-07T12:54:17.918Z,4.10
2019-04-07T12:55:18.038Z,4.30
2019-04-07T12:56:17.993Z,4.30
2019-04-07T12:57:17.192Z,4.30
2019-04-07T12:58:17.203Z,4.50
2019-04-07T12:59:18.300Z,4.40